Richards, Texas
Current Conditions -  °F | °C
As of 5:53 PM on Sunday 25 Jan 2015 (Local Time) from KUTS Reporting Station
Clear Clear  
Wind Chill: 64°   Ceiling: Unl
Heat Index: 64°   Visibility: 10mi
Dew Point: 31°   Wind: 9mph
Humidity: 29%   Direction: 300°WNW
Pressure: 30.04"   Gusts: NA
Location:  30.54°N, 95.84°W
Report Text: KUTS 252353Z AUTO 30008KT 10SM CLR 18/M01 A3004 RMK AO2 SLP169 T01781006 10211 20167 53006
Loading
Personal Weather Stations






























Interactive Weather Map New forecast layout! Learn more

10-Day Weather Forecast

Advertisements
Track Severe Weather on mobile